Time;durP1;ratioP1;P1;durP2;ratioP2;P2;SDS_P1;SDS_P2;PMS_P1;PMS_P2;Temp;Humidity;BMP_temperature;BMP_pressure;BME280_temperature;BME280_humidity;BME280_pressure;Samples;Min_cycle;Max_cycle;Signal;HPM_P1;HPM_P2
2023/04/04 00:00:59;;;;;;;2.35;1.60;;;4.20;99.90;;;;;;4998159;28;20076;-62
2023/04/04 00:03:25;;;;;;;7.70;1.92;;;4.10;99.90;;;;;;4998843;28;20076;-62
2023/04/04 00:05:50;;;;;;;3.45;1.67;;;4.10;99.90;;;;;;4998252;28;20058;-62
2023/04/04 00:08:16;;;;;;;3.38;1.02;;;4.30;99.90;;;;;;4997917;28;20153;-62
2023/04/04 00:10:42;;;;;;;4.55;1.13;;;4.40;99.90;;;;;;4998133;28;20026;-62
2023/04/04 00:13:08;;;;;;;6.10;1.55;;;4.40;99.90;;;;;;4998199;28;20034;-62
2023/04/04 00:15:35;;;;;;;3.83;1.10;;;4.00;99.90;;;;;;4997626;28;20034;-62
2023/04/04 00:18:02;;;;;;;5.55;1.15;;;3.60;99.90;;;;;;4997312;28;20026;-62
2023/04/04 00:20:28;;;;;;;1.98;1.08;;;3.40;99.90;;;;;;4998606;28;20109;-62
2023/04/04 00:22:54;;;;;;;2.15;0.90;;;3.50;99.90;;;;;;4997702;28;20037;-62
2023/04/04 00:25:19;;;;;;;4.68;1.77;;;3.60;99.90;;;;;;4997868;28;20026;-62
2023/04/04 00:27:46;;;;;;;4.70;1.48;;;3.60;99.90;;;;;;4997667;28;20029;-62
2023/04/04 00:30:12;;;;;;;2.75;1.38;;;3.60;99.90;;;;;;4998462;28;20037;-62
2023/04/04 00:32:38;;;;;;;2.40;1.33;;;3.60;99.90;;;;;;4997509;28;20026;-62
2023/04/04 00:35:03;;;;;;;7.65;1.45;;;3.50;99.90;;;;;;4997769;28;20069;-62
2023/04/04 00:37:29;;;;;;;2.53;1.30;;;3.30;99.90;;;;;;4998228;28;20033;-62
2023/04/04 00:39:55;;;;;;;6.85;1.20;;;3.20;99.90;;;;;;4998288;28;20019;-62
2023/04/04 00:42:21;;;;;;;2.85;1.13;;;3.40;99.90;;;;;;4997345;28;20018;-62
2023/04/04 00:44:46;;;;;;;5.90;1.40;;;3.50;99.90;;;;;;4997520;28;20030;-62
2023/04/04 00:47:12;;;;;;;4.13;1.30;;;3.50;99.90;;;;;;4998057;28;20026;-62
2023/04/04 00:49:37;;;;;;;6.63;1.77;;;3.60;99.90;;;;;;4997280;28;20034;-62
2023/04/04 00:52:05;;;;;;;2.53;1.42;;;3.60;99.90;;;;;;4997264;28;20026;-62
2023/04/04 00:54:31;;;;;;;3.72;1.77;;;3.50;99.90;;;;;;4998027;28;20022;-62
2023/04/04 00:56:59;;;;;;;4.50;0.95;;;3.30;99.90;;;;;;4997441;28;20046;-62
2023/04/04 00:59:26;;;;;;;3.80;1.30;;;3.00;99.90;;;;;;4997070;28;20033;-62
2023/04/04 01:01:52;;;;;;;4.57;1.20;;;3.20;99.90;;;;;;4997310;28;20018;-62
2023/04/04 01:04:18;;;;;;;3.72;1.60;;;3.20;99.90;;;;;;4997257;28;20033;-62
2023/04/04 01:06:44;;;;;;;4.38;1.45;;;3.10;99.90;;;;;;4997155;28;20045;-62
2023/04/04 01:09:11;;;;;;;5.13;1.30;;;3.20;99.90;;;;;;4996961;28;20094;-62
2023/04/04 01:11:37;;;;;;;5.53;1.13;;;3.10;99.90;;;;;;4997051;28;20026;-62
2023/04/04 01:14:02;;;;;;;2.58;1.15;;;3.10;99.90;;;;;;4997126;28;20034;-62
2023/04/04 01:16:28;;;;;;;2.13;1.10;;;3.20;99.90;;;;;;4997101;28;20033;-62
2023/04/04 01:18:55;;;;;;;6.40;1.38;;;3.20;99.90;;;;;;4996869;28;20034;-62
2023/04/04 01:21:22;;;;;;;1.40;0.90;;;3.30;99.90;;;;;;4997717;28;20097;-62
2023/04/04 01:24:03;;;;;;;5.00;1.30;;;3.30;99.90;;;;;;4997380;28;20116;-62
2023/04/04 01:26:29;;;;;;;3.85;1.30;;;3.20;99.90;;;;;;4996711;28;20049;-62
2023/04/04 01:28:56;;;;;;;4.10;1.48;;;3.20;99.90;;;;;;4995889;28;20026;-62
2023/04/04 01:31:36;;;;;;;3.75;1.00;;;3.20;99.90;;;;;;4996641;28;20034;-62
2023/04/04 01:34:27;;;;;;;5.15;1.00;;;3.20;99.90;;;;;;4996573;28;20062;-62
2023/04/04 01:37:04;;;;;;;8.18;1.10;;;3.10;99.90;;;;;;4996716;28;20027;-62
2023/04/04 01:39:44;;;;;;;2.38;0.95;;;3.10;99.90;;;;;;4996756;28;20023;-62
2023/04/04 01:42:11;;;;;;;6.78;1.70;;;3.10;99.90;;;;;;4996432;28;20054;-62
2023/04/04 01:44:37;;;;;;;1.92;1.13;;;3.10;99.90;;;;;;4996566;28;20038;-62
2023/04/04 01:47:06;;;;;;;2.53;1.40;;;3.00;99.90;;;;;;4996603;28;20035;-62
2023/04/04 01:49:31;;;;;;;3.22;1.20;;;2.90;99.90;;;;;;4997361;28;20029;-62
2023/04/04 01:51:57;;;;;;;4.05;1.52;;;2.90;99.90;;;;;;4996594;28;20038;-62
2023/04/04 01:54:22;;;;;;;2.30;1.40;;;3.00;99.90;;;;;;4996286;28;20023;-62
2023/04/04 01:56:48;;;;;;;6.57;1.33;;;3.10;99.90;;;;;;4996464;28;20032;-62
2023/04/04 01:59:14;;;;;;;7.05;1.30;;;3.10;99.90;;;;;;4997433;28;20026;-62
2023/04/04 02:01:39;;;;;;;4.05;1.27;;;3.00;99.90;;;;;;4996496;28;20109;-62
2023/04/04 02:04:06;;;;;;;2.47;1.02;;;3.00;99.90;;;;;;4997755;28;20030;-62
2023/04/04 02:06:31;;;;;;;4.28;1.63;;;2.90;99.90;;;;;;4997274;28;20026;-62
2023/04/04 02:08:57;;;;;;;3.40;1.60;;;2.90;99.90;;;;;;4997245;28;20027;-62
2023/04/04 02:11:22;;;;;;;3.75;1.30;;;2.90;99.90;;;;;;4996638;28;20023;-62
2023/04/04 02:13:48;;;;;;;3.42;1.15;;;2.90;99.90;;;;;;4996106;28;20030;-62
2023/04/04 02:16:14;;;;;;;2.63;1.35;;;2.80;99.90;;;;;;4997363;28;20109;-62
2023/04/04 02:18:40;;;;;;;4.35;1.35;;;2.90;99.90;;;;;;4996388;28;20030;-62
2023/04/04 02:21:06;;;;;;;6.97;1.67;;;2.90;99.90;;;;;;4996190;28;20030;-62
2023/04/04 02:23:31;;;;;;;4.13;1.45;;;2.80;99.90;;;;;;4996272;28;20026;-62
2023/04/04 02:25:57;;;;;;;4.35;1.40;;;2.80;99.90;;;;;;4997032;28;20099;-62
2023/04/04 02:28:22;;;;;;;3.65;1.20;;;2.80;99.90;;;;;;4996195;28;20026;-62
2023/04/04 02:30:48;;;;;;;3.00;1.13;;;2.80;99.90;;;;;;4996237;28;20085;-62
2023/04/04 02:33:13;;;;;;;4.95;1.60;;;2.80;99.90;;;;;;4996135;28;20030;-62
2023/04/04 02:35:39;;;;;;;3.17;1.55;;;2.80;99.90;;;;;;4996031;28;20053;-62
2023/04/04 02:38:04;;;;;;;2.83;1.40;;;2.80;99.90;;;;;;5050079;22;20099;-76
2023/04/04 02:40:30;;;;;;;3.53;1.30;;;2.90;99.90;;;;;;5035896;28;20024;-76
2023/04/04 02:42:55;;;;;;;6.22;1.42;;;3.00;99.90;;;;;;5039098;28;20116;-76
2023/04/04 02:45:21;;;;;;;3.42;1.30;;;2.90;99.90;;;;;;5039421;28;20032;-76
2023/04/04 02:47:50;;;;;;;4.80;1.13;;;2.90;99.90;;;;;;5050882;28;20025;-76
2023/04/04 02:50:16;;;;;;;3.50;1.35;;;3.00;99.90;;;;;;5060251;28;20032;-76
2023/04/04 02:52:41;;;;;;;2.63;1.00;;;3.10;99.90;;;;;;5060280;28;20025;-76
2023/04/04 02:55:08;;;;;;;5.10;1.63;;;3.20;99.90;;;;;;5060522;28;20146;-76
2023/04/04 02:57:34;;;;;;;3.50;1.35;;;3.20;99.90;;;;;;5059232;28;20021;-76
2023/04/04 03:00:02;;;;;;;5.03;1.10;;;3.30;99.90;;;;;;5058948;28;20021;-76
2023/04/04 03:02:27;;;;;;;3.70;1.33;;;3.20;99.90;;;;;;5060007;28;20115;-76
2023/04/04 03:04:53;;;;;;;3.30;1.00;;;3.20;99.90;;;;;;5060026;28;20060;-76
2023/04/04 03:07:18;;;;;;;4.28;1.10;;;3.20;99.90;;;;;;5060425;28;20025;-76
2023/04/04 03:09:44;;;;;;;6.28;3.20;;;3.20;99.90;;;;;;5058959;28;20063;-76
2023/04/04 03:12:10;;;;;;;6.13;1.55;;;3.30;99.90;;;;;;5059040;28;20067;-76
2023/04/04 03:14:36;;;;;;;3.72;1.35;;;3.20;99.90;;;;;;5059135;28;20027;-76
2023/04/04 03:17:02;;;;;;;6.13;1.52;;;3.20;99.90;;;;;;5060232;28;20113;-76
2023/04/04 03:19:27;;;;;;;3.72;1.35;;;3.20;99.90;;;;;;5059012;28;20025;-76
2023/04/04 03:21:53;;;;;;;5.88;1.60;;;3.20;99.90;;;;;;5059786;28;20033;-76
2023/04/04 03:24:18;;;;;;;3.03;1.17;;;3.20;99.90;;;;;;5059882;28;20033;-76
2023/04/04 03:26:44;;;;;;;8.32;1.52;;;3.20;99.90;;;;;;5059039;28;20032;-76
2023/04/04 03:29:09;;;;;;;2.65;1.45;;;3.20;99.90;;;;;;5059323;28;20113;-76
2023/04/04 03:31:35;;;;;;;1.67;1.30;;;3.10;99.90;;;;;;5059147;28;20131;-66
2023/04/04 03:34:03;;;;;;;4.40;1.27;;;3.00;99.90;;;;;;5058088;28;20029;-66
2023/04/04 03:36:29;;;;;;;3.00;1.20;;;3.00;99.90;;;;;;5057934;28;20043;-66
2023/04/04 03:38:54;;;;;;;5.13;1.25;;;3.00;99.90;;;;;;5058587;28;20056;-66
2023/04/04 03:41:20;;;;;;;3.33;1.38;;;3.10;99.90;;;;;;5057932;28;20032;-66
2023/04/04 03:43:47;;;;;;;4.78;1.42;;;3.10;99.90;;;;;;5059071;28;20044;-66
2023/04/04 03:46:13;;;;;;;2.92;1.52;;;3.20;99.90;;;;;;5057800;28;20024;-66
2023/04/04 03:48:38;;;;;;;4.05;1.15;;;3.20;99.90;;;;;;5057799;28;20074;-66
2023/04/04 03:51:04;;;;;;;4.05;1.60;;;3.10;99.90;;;;;;5058067;28;20024;-66
2023/04/04 03:53:30;;;;;;;3.20;1.65;;;3.20;99.90;;;;;;5057184;28;20028;-67
2023/04/04 03:55:56;;;;;;;2.70;1.25;;;3.10;99.90;;;;;;5057703;28;20028;-66
2023/04/04 03:58:22;;;;;;;3.35;1.40;;;3.20;99.90;;;;;;5057413;28;20035;-67
2023/04/04 04:00:47;;;;;;;4.95;1.55;;;3.10;99.90;;;;;;5057841;28;20107;-66
2023/04/04 04:03:13;;;;;;;6.05;1.50;;;3.10;99.90;;;;;;5058277;28;20024;-67
2023/04/04 04:05:38;;;;;;;5.88;1.23;;;2.90;99.90;;;;;;5057727;28;20029;-66
2023/04/04 04:08:04;;;;;;;6.43;1.48;;;2.80;99.90;;;;;;5057660;28;20049;-68
2023/04/04 04:10:32;;;;;;;4.82;1.63;;;2.60;99.90;;;;;;5057221;28;20025;-66
2023/04/04 04:12:58;;;;;;;4.88;1.10;;;2.60;99.90;;;;;;5057578;28;20040;-66
2023/04/04 04:15:23;;;;;;;5.00;1.70;;;2.70;99.90;;;;;;5057491;28;20025;-66
2023/04/04 04:17:49;;;;;;;3.40;1.52;;;2.60;99.90;;;;;;5057058;28;20021;-66
2023/04/04 04:20:15;;;;;;;2.88;1.60;;;2.50;99.90;;;;;;5058239;28;20032;-66
2023/04/04 04:22:46;;;;;;;4.18;1.83;;;2.40;99.90;;;;;;5057148;28;20029;-66
2023/04/04 04:25:12;;;;;;;9.80;1.98;;;2.40;99.90;;;;;;5057075;28;20025;-66
2023/04/04 04:27:37;;;;;;;2.47;1.38;;;2.30;99.90;;;;;;5057445;28;20106;-66
2023/04/04 04:30:04;;;;;;;4.07;1.52;;;2.50;99.90;;;;;;5057419;28;20017;-66
2023/04/04 04:32:29;;;;;;;5.40;2.00;;;2.70;99.90;;;;;;5056842;28;20079;-66
2023/04/04 04:34:55;;;;;;;2.85;1.27;;;2.70;99.90;;;;;;5056882;28;20108;-66
2023/04/04 04:37:20;;;;;;;5.72;2.08;;;2.80;99.90;;;;;;5057431;28;20045;-66
2023/04/04 04:39:46;;;;;;;5.05;1.70;;;2.80;99.90;;;;;;5056869;28;20086;-66
2023/04/04 04:42:11;;;;;;;5.20;2.08;;;2.80;99.90;;;;;;5057693;28;20047;-66
2023/04/04 04:44:37;;;;;;;6.32;1.77;;;2.80;99.90;;;;;;5056659;28;20029;-66
2023/04/04 04:47:03;;;;;;;8.90;2.20;;;2.70;99.90;;;;;;5057445;28;20029;-69
2023/04/04 04:49:29;;;;;;;2.80;1.27;;;2.80;99.90;;;;;;5056814;28;20020;-69
2023/04/04 04:51:54;;;;;;;4.13;1.30;;;2.80;99.90;;;;;;5056652;28;20063;-66
2023/04/04 04:54:20;;;;;;;5.60;1.85;;;2.80;99.90;;;;;;5056828;28;20056;-66
2023/04/04 04:56:46;;;;;;;3.58;1.30;;;2.80;99.90;;;;;;5056677;28;20028;-66
2023/04/04 04:59:12;;;;;;;3.47;1.75;;;2.80;99.90;;;;;;5057544;28;20025;-66
2023/04/04 05:01:38;;;;;;;2.85;1.33;;;2.60;99.90;;;;;;5056329;28;20021;-66
2023/04/04 05:04:03;;;;;;;2.83;1.33;;;2.60;99.90;;;;;;5057761;28;20028;-66
2023/04/04 05:06:29;;;;;;;3.85;1.45;;;2.60;99.90;;;;;;5056341;28;20025;-65
2023/04/04 05:08:54;;;;;;;7.93;1.10;;;2.50;99.90;;;;;;5056333;28;20021;-66
2023/04/04 05:11:20;;;;;;;10.45;1.85;;;2.50;99.90;;;;;;5057299;28;20025;-75
2023/04/04 05:13:46;;;;;;;4.50;1.92;;;2.60;99.90;;;;;;5056753;28;20028;-75
2023/04/04 05:16:12;;;;;;;5.97;2.00;;;2.50;99.90;;;;;;5057139;28;20024;-75
2023/04/04 05:18:37;;;;;;;4.18;1.40;;;2.30;99.90;;;;;;5057280;28;20013;-75
2023/04/04 05:21:03;;;;;;;5.80;1.83;;;2.20;99.90;;;;;;5056690;28;20066;-75
2023/04/04 05:23:28;;;;;;;11.80;1.60;;;2.20;99.90;;;;;;5057160;28;20021;-75
2023/04/04 05:25:54;;;;;;;6.25;2.10;;;2.10;99.90;;;;;;5056310;28;20029;-76
2023/04/04 05:28:20;;;;;;;4.25;1.95;;;2.10;99.90;;;;;;5056515;28;20060;-76
2023/04/04 05:30:46;;;;;;;4.20;1.35;;;2.10;99.90;;;;;;5056405;28;20024;-75
2023/04/04 05:33:11;;;;;;;7.13;1.65;;;2.30;99.90;;;;;;5056288;28;20025;-75
2023/04/04 05:35:37;;;;;;;5.32;1.52;;;2.50;99.90;;;;;;5056344;28;20028;-76
2023/04/04 05:38:03;;;;;;;8.05;1.35;;;2.60;99.90;;;;;;5056128;28;20044;-76
2023/04/04 05:40:28;;;;;;;2.25;1.27;;;2.60;99.90;;;;;;5056978;28;20119;-75
2023/04/04 05:42:58;;;;;;;5.65;1.50;;;2.70;99.90;;;;;;5056912;28;20123;-76
2023/04/04 05:45:24;;;;;;;11.63;1.75;;;2.80;99.90;;;;;;5056127;28;20120;-76
2023/04/04 05:47:50;;;;;;;4.05;1.58;;;2.70;99.90;;;;;;5056098;28;20056;-75
2023/04/04 05:50:16;;;;;;;3.10;1.58;;;2.80;99.90;;;;;;5056932;28;20017;-75
2023/04/04 05:52:41;;;;;;;3.75;1.60;;;2.50;99.90;;;;;;5056892;28;20017;-75
2023/04/04 05:55:07;;;;;;;3.50;1.90;;;2.20;99.90;;;;;;5057274;28;20028;-76
2023/04/04 05:57:33;;;;;;;2.72;1.63;;;2.00;99.90;;;;;;5055902;28;20033;-76
2023/04/04 05:59:58;;;;;;;4.70;1.83;;;1.90;99.90;;;;;;5055989;28;20104;-76
2023/04/04 06:02:24;;;;;;;7.05;1.70;;;2.00;99.90;;;;;;5056973;28;20041;-76
2023/04/04 06:04:49;;;;;;;8.45;2.00;;;2.10;99.90;;;;;;5056110;28;20021;-76
2023/04/04 06:07:15;;;;;;;7.38;1.73;;;2.10;99.90;;;;;;5055645;28;20021;-75
2023/04/04 06:09:41;;;;;;;4.05;1.83;;;2.10;99.90;;;;;;5055985;28;20020;-75
2023/04/04 06:12:10;;;;;;;2.08;1.73;;;2.10;99.90;;;;;;5055958;28;20021;-75
2023/04/04 06:14:36;;;;;;;4.07;1.60;;;1.90;99.90;;;;;;5057033;28;20051;-76
2023/04/04 06:17:02;;;;;;;3.45;1.58;;;1.90;99.90;;;;;;5059293;28;20024;-75
2023/04/04 06:19:28;;;;;;;4.03;1.70;;;2.10;99.90;;;;;;5059569;28;20036;-76
2023/04/04 06:21:53;;;;;;;7.97;2.13;;;2.30;99.90;;;;;;5059998;28;20033;-76
2023/04/04 06:24:19;;;;;;;5.88;1.83;;;2.50;99.90;;;;;;5060705;28;20108;-76
2023/04/04 06:26:45;;;;;;;4.68;1.65;;;2.80;99.90;;;;;;5060748;28;20021;-76
2023/04/04 06:29:11;;;;;;;3.63;1.52;;;3.00;99.90;;;;;;5059943;28;20032;-75
2023/04/04 06:31:37;;;;;;;3.72;1.50;;;3.20;99.90;;;;;;5059832;28;20017;-76
2023/04/04 06:34:02;;;;;;;1.98;1.23;;;3.30;99.90;;;;;;5059754;28;20017;-76
2023/04/04 06:36:28;;;;;;;2.25;1.45;;;3.40;99.90;;;;;;5060559;28;20017;-75
2023/04/04 06:38:53;;;;;;;4.85;1.45;;;3.40;99.90;;;;;;5059726;28;20032;-77
2023/04/04 06:41:19;;;;;;;7.68;1.95;;;3.50;99.90;;;;;;5060481;28;20021;-77
2023/04/04 06:43:47;;;;;;;4.97;2.20;;;3.50;99.90;;;;;;5059982;28;20031;-77
2023/04/04 06:46:12;;;;;;;5.28;1.90;;;3.60;99.90;;;;;;5060838;28;20082;-76
2023/04/04 06:48:38;;;;;;;5.60;1.83;;;3.60;99.90;;;;;;5061234;28;20025;-77
2023/04/04 06:51:06;;;;;;;4.53;1.45;;;3.60;99.90;;;;;;5062996;28;20021;-78
2023/04/04 06:53:31;;;;;;;4.40;1.60;;;3.60;99.90;;;;;;5062151;28;20025;-77
2023/04/04 06:55:57;;;;;;;5.47;1.48;;;3.70;99.90;;;;;;5059613;28;20025;-76
2023/04/04 06:58:24;;;;;;;3.05;1.45;;;3.60;99.90;;;;;;5059681;28;20051;-76
2023/04/04 07:00:49;;;;;;;2.83;1.58;;;3.70;99.90;;;;;;5058942;28;20112;-76
2023/04/04 07:03:15;;;;;;;5.03;1.48;;;3.70;99.90;;;;;;5059078;28;20110;-75
2023/04/04 07:05:41;;;;;;;4.50;1.75;;;3.80;99.90;;;;;;5058791;28;20029;-75
2023/04/04 07:08:07;;;;;;;3.72;1.60;;;3.80;99.90;;;;;;5059079;28;20028;-75
2023/04/04 07:10:33;;;;;;;3.15;1.60;;;3.80;99.90;;;;;;5058917;28;20017;-75
2023/04/04 07:12:59;;;;;;;4.53;1.80;;;3.90;99.90;;;;;;5058828;28;20024;-75
2023/04/04 07:15:25;;;;;;;8.57;1.95;;;3.90;99.90;;;;;;5059634;28;20087;-75
2023/04/04 07:17:51;;;;;;;2.25;1.50;;;3.90;99.90;;;;;;5058991;28;20036;-75
2023/04/04 07:20:16;;;;;;;2.45;1.17;;;4.00;99.90;;;;;;5058515;28;20020;-75
2023/04/04 07:22:43;;;;;;;7.00;1.35;;;4.10;99.90;;;;;;5058563;28;20025;-75
2023/04/04 07:25:09;;;;;;;4.10;1.58;;;4.20;99.90;;;;;;5058453;28;20033;-75
2023/04/04 07:27:35;;;;;;;4.55;1.85;;;4.30;99.90;;;;;;5057676;28;20027;-75
2023/04/04 07:30:01;;;;;;;3.97;1.83;;;4.40;99.90;;;;;;5057604;28;20021;-75
2023/04/04 07:32:26;;;;;;;2.60;1.45;;;4.50;99.90;;;;;;5057599;28;20155;-75
2023/04/04 07:34:52;;;;;;;3.95;1.98;;;4.50;99.90;;;;;;5057590;28;20025;-75
2023/04/04 07:37:18;;;;;;;5.30;1.52;;;4.60;99.90;;;;;;5057563;28;20033;-75
2023/04/04 07:39:44;;;;;;;3.80;1.65;;;4.60;99.90;;;;;;5057414;28;20036;-75
2023/04/04 07:42:09;;;;;;;4.35;1.55;;;4.60;99.90;;;;;;5058129;28;20021;-75
2023/04/04 07:44:35;;;;;;;2.08;1.45;;;4.60;99.90;;;;;;5058923;28;20117;-76
2023/04/04 07:47:01;;;;;;;6.07;2.38;;;4.70;99.90;;;;;;5058273;28;20104;-75
2023/04/04 07:49:26;;;;;;;6.22;1.60;;;4.70;99.90;;;;;;5058043;28;20070;-76
2023/04/04 07:51:53;;;;;;;8.90;2.20;;;4.80;99.90;;;;;;5057973;28;20021;-75
2023/04/04 07:54:19;;;;;;;2.38;1.30;;;5.00;99.90;;;;;;5059165;28;20048;-76
2023/04/04 07:56:45;;;;;;;1.55;1.35;;;5.10;99.90;;;;;;5058765;28;20024;-75
2023/04/04 07:59:10;;;;;;;3.25;1.10;;;5.10;99.90;;;;;;5058390;28;20032;-75
2023/04/04 08:01:36;;;;;;;3.95;1.63;;;5.00;99.90;;;;;;5057893;28;20025;-76
2023/04/04 08:04:02;;;;;;;4.57;1.60;;;5.10;99.90;;;;;;5058437;28;20021;-75
2023/04/04 08:06:27;;;;;;;4.60;1.60;;;5.00;99.90;;;;;;5058514;28;20052;-75
2023/04/04 08:08:53;;;;;;;2.83;1.27;;;5.10;99.90;;;;;;5057858;28;20017;-75
2023/04/04 08:11:18;;;;;;;2.97;1.35;;;5.30;99.90;;;;;;5057758;28;20017;-75
2023/04/04 08:13:44;;;;;;;2.15;1.20;;;5.40;99.90;;;;;;5057663;28;20021;-75
2023/04/04 08:16:09;;;;;;;4.63;1.05;;;5.50;99.90;;;;;;5057470;28;20032;-76
2023/04/04 08:18:35;;;;;;;2.78;0.88;;;5.50;99.90;;;;;;5057327;28;20029;-75
2023/04/04 08:21:00;;;;;;;4.13;1.20;;;5.60;99.90;;;;;;5058287;28;20049;-76
2023/04/04 08:23:26;;;;;;;2.90;1.95;;;5.70;99.90;;;;;;5057391;28;20061;-75
2023/04/04 08:25:52;;;;;;;2.65;1.20;;;5.80;99.90;;;;;;5058357;28;20025;-75
2023/04/04 08:28:18;;;;;;;6.93;1.65;;;5.80;99.90;;;;;;5057396;28;20013;-67
2023/04/04 08:30:43;;;;;;;1.80;1.00;;;6.00;99.90;;;;;;5057113;28;20021;-68
2023/04/04 08:33:09;;;;;;;4.00;1.50;;;6.00;99.90;;;;;;5057291;28;20075;-67
2023/04/04 08:35:35;;;;;;;4.53;1.25;;;6.10;99.90;;;;;;5057089;28;20025;-67
2023/04/04 08:38:04;;;;;;;1.73;0.90;;;6.00;99.90;;;;;;5057007;28;20061;-70
2023/04/04 08:40:31;;;;;;;1.67;0.88;;;6.00;99.90;;;;;;5056767;28;20025;-70
2023/04/04 08:42:58;;;;;;;3.42;1.27;;;6.00;99.90;;;;;;5056823;28;20025;-70
2023/04/04 08:45:26;;;;;;;2.65;1.10;;;5.80;99.00;;;;;;5056782;28;20047;-70
2023/04/04 08:47:52;;;;;;;3.25;1.25;;;5.70;99.30;;;;;;5056828;28;20032;-70
2023/04/04 08:50:18;;;;;;;3.85;1.38;;;5.80;99.00;;;;;;5057728;28;20017;-70
2023/04/04 08:52:45;;;;;;;3.40;1.08;;;5.90;99.70;;;;;;5056918;28;20025;-70
2023/04/04 08:55:12;;;;;;;3.35;1.27;;;6.00;99.90;;;;;;5058197;28;20029;-70
2023/04/04 08:57:37;;;;;;;3.42;1.60;;;6.10;98.50;;;;;;5056713;28;20035;-71
2023/04/04 09:00:05;;;;;;;2.25;1.08;;;6.30;99.50;;;;;;5056871;28;20115;-71
2023/04/04 09:03:16;;;;;;;1.92;1.35;;;6.50;99.30;;;;;;5056662;28;20047;-70
2023/04/04 09:05:42;;;;;;;3.85;1.35;;;6.80;99.90;;;;;;5015957;28;20042;-70
2023/04/04 09:08:09;;;;;;;1.25;0.95;;;6.90;99.10;;;;;;4999492;28;20073;-70
2023/04/04 09:10:36;;;;;;;1.63;1.30;;;7.00;99.00;;;;;;5015910;28;20057;-70
2023/04/04 09:13:02;;;;;;;1.33;1.23;;;7.00;99.00;;;;;;5016396;28;20045;-70
2023/04/04 09:15:29;;;;;;;3.30;1.40;;;7.00;99.60;;;;;;5016009;28;20033;-71
2023/04/04 09:17:55;;;;;;;4.10;1.40;;;7.10;98.90;;;;;;4999497;28;20221;-71
2023/04/04 09:20:39;;;;;;;2.45;1.33;;;7.20;99.90;;;;;;5015991;28;20100;-71
2023/04/04 09:23:08;;;;;;;4.30;1.25;;;7.10;99.00;;;;;;5016163;28;20041;-71
2023/04/04 09:25:34;;;;;;;3.83;1.10;;;7.30;98.80;;;;;;4999271;28;20057;-71
2023/04/04 09:28:03;;;;;;;5.10;1.48;;;7.60;97.90;;;;;;4999824;28;20038;-71
2023/04/04 09:30:29;;;;;;;2.20;1.50;;;7.70;97.00;;;;;;4999419;28;20026;-71
2023/04/04 09:32:56;;;;;;;3.65;1.40;;;7.50;96.30;;;;;;4999905;28;20030;-71
2023/04/04 09:35:22;;;;;;;1.88;1.27;;;7.40;96.20;;;;;;4999416;28;20038;-70
2023/04/04 09:37:47;;;;;;;5.53;1.70;;;7.40;97.00;;;;;;4999261;28;20038;-70
2023/04/04 09:40:14;;;;;;;1.70;1.10;;;7.80;96.40;;;;;;5002849;28;20025;-70
2023/04/04 09:42:41;;;;;;;2.88;1.42;;;7.90;95.80;;;;;;5056320;28;20043;-71
2023/04/04 09:45:08;;;;;;;9.65;1.67;;;7.70;94.50;;;;;;5056295;28;20032;-70
2023/04/04 09:47:40;;;;;;;3.47;1.55;;;7.60;94.60;;;;;;5056044;28;20047;-71
2023/04/04 09:50:06;;;;;;;;;;;7.50;96.00;;;;;;5057703;28;20021;-71
2023/04/04 09:52:35;;;;;;;4.30;1.65;;;7.60;94.80;;;;;;5061012;28;19905;-71
2023/04/04 09:55:02;;;;;;;6.28;1.88;;;7.70;97.10;;;;;;5061227;28;20017;-71
2023/04/04 09:57:33;;;;;;;4.15;1.33;;;8.00;96.50;;;;;;5060644;28;20074;-70
2023/04/04 10:00:07;;;;;;;3.53;1.40;;;8.10;94.60;;;;;;5061094;28;20024;-70
2023/04/04 10:02:34;;;;;;;6.43;1.80;;;8.30;94.80;;;;;;5059814;28;20025;-70
2023/04/04 10:05:00;;;;;;;2.40;1.30;;;8.20;94.50;;;;;;5060883;28;20029;-70
2023/04/04 10:07:28;;;;;;;5.28;1.52;;;8.20;93.70;;;;;;5059691;28;20013;-71
2023/04/04 10:09:54;;;;;;;4.90;1.90;;;8.40;94.20;;;;;;5059916;28;20048;-70
2023/04/04 10:12:26;;;;;;;1.95;1.30;;;8.20;93.50;;;;;;5060618;28;20078;-71
2023/04/04 10:14:58;;;;;;;5.68;1.83;;;8.20;92.90;;;;;;5060785;28;20109;-70
2023/04/04 10:17:38;;;;;;;8.15;2.13;;;8.40;92.70;;;;;;5059869;28;20088;-70
2023/04/04 10:20:06;;;;;;;10.90;4.10;;;8.50;91.60;;;;;;5059722;28;20081;-70
2023/04/04 10:22:32;;;;;;;4.32;1.88;;;8.40;91.90;;;;;;5059400;28;20093;-70
2023/04/04 10:24:58;;;;;;;3.05;1.50;;;8.70;93.50;;;;;;5060523;28;20017;-70
2023/04/04 10:27:25;;;;;;;3.10;1.38;;;9.00;93.60;;;;;;5059296;28;20078;-71
2023/04/04 10:29:51;;;;;;;3.00;1.60;;;9.40;94.00;;;;;;5059311;28;20017;-70
2023/04/04 10:32:30;;;;;;;5.20;1.55;;;9.40;91.70;;;;;;5059368;28;20021;-69
2023/04/04 10:35:07;;;;;;;4.47;1.50;;;9.50;93.10;;;;;;5060155;28;20025;-69
2023/04/04 10:37:51;;;;;;;10.30;4.20;;;9.60;91.70;;;;;;5060402;28;20028;-69
2023/04/04 10:40:19;;;;;;;23.48;9.38;;;9.70;90.40;;;;;;5059256;28;20025;-69
2023/04/04 10:42:46;;;;;;;7.43;2.13;;;9.90;88.10;;;;;;5059326;28;20028;-69
2023/04/04 10:45:14;;;;;;;11.65;4.18;;;9.50;86.90;;;;;;5059895;28;20051;-70
2023/04/04 10:47:40;;;;;;;4.07;1.52;;;9.40;90.30;;;;;;5058995;28;20079;-70
2023/04/04 10:50:09;;;;;;;3.55;1.92;;;9.90;90.00;;;;;;5059348;28;20079;-70
2023/04/04 10:52:36;;;;;;;3.38;1.45;;;10.10;89.10;;;;;;5059101;28;20021;-70
2023/04/04 10:55:05;;;;;;;8.07;4.55;;;10.40;87.40;;;;;;5059064;28;20029;-70
2023/04/04 10:57:32;;;;;;;3.90;1.77;;;10.40;88.30;;;;;;5058807;28;20077;-70
2023/04/04 11:00:08;;;;;;;4.93;1.65;;;10.50;88.50;;;;;;5059159;28;20044;-70
2023/04/04 11:03:00;;;;;;;8.35;2.45;;;10.80;85.60;;;;;;5059802;28;20029;-70
2023/04/04 11:06:00;;;;;;;8.77;2.13;;;10.50;84.20;;;;;;5058901;28;20025;-70
2023/04/04 11:08:27;;;;;;;2.78;1.50;;;10.80;90.30;;;;;;5058969;28;20029;-70
2023/04/04 11:10:54;;;;;;;4.03;1.60;;;11.10;84.10;;;;;;5059526;28;20078;-70
2023/04/04 11:13:56;;;;;;;4.68;2.15;;;11.10;83.70;;;;;;5058391;28;20021;-70
2023/04/04 11:16:23;;;;;;;5.93;2.33;;;11.00;82.90;;;;;;5059174;28;20029;-70
2023/04/04 11:18:48;;;;;;;4.68;2.22;;;10.50;81.10;;;;;;5058720;28;20061;-70
2023/04/04 11:21:17;;;;;;;2.42;1.63;;;10.20;83.30;;;;;;5058472;28;20025;-71
2023/04/04 11:23:48;;;;;;;3.47;1.75;;;10.60;83.50;;;;;;5059161;28;20028;-70
2023/04/04 11:26:29;;;;;;;10.95;4.57;;;11.00;80.70;;;;;;5059344;28;20029;-71
2023/04/04 11:29:07;;;;;;;1.88;1.48;;;11.40;84.90;;;;;;5058322;28;20108;-75
2023/04/04 11:31:46;;;;;;;1.90;1.42;;;11.80;80.70;;;;;;5059170;28;20017;-75
2023/04/04 11:34:14;;;;;;;2.58;1.85;;;11.90;82.30;;;;;;5059191;28;20021;-75
2023/04/04 11:36:41;;;;;;;4.07;2.40;;;12.20;80.30;;;;;;5059039;28;20029;-74
2023/04/04 11:39:09;;;;;;;3.78;2.20;;;12.50;81.80;;;;;;5058251;28;20025;-75
2023/04/04 11:41:56;;;;;;;3.30;2.38;;;12.70;85.70;;;;;;5058657;28;20021;-72
2023/04/04 11:44:23;;;;;;;4.03;2.10;;;13.20;85.30;;;;;;5057950;28;20025;-73
2023/04/04 11:47:01;;;;;;;6.10;2.22;;;13.70;86.10;;;;;;5058080;28;20104;-73
2023/04/04 11:49:29;;;;;;;4.95;2.08;;;14.00;79.40;;;;;;5058583;28;20058;-72
2023/04/04 11:51:55;;;;;;;3.83;2.00;;;13.40;81.80;;;;;;5057791;28;20052;-73
2023/04/04 11:54:20;;;;;;;4.60;2.20;;;13.20;82.40;;;;;;5059116;28;20052;-72
2023/04/04 11:56:46;;;;;;;2.95;2.20;;;12.70;85.00;;;;;;5057837;28;20021;-72
2023/04/04 11:59:16;;;;;;;5.97;2.58;;;13.00;86.40;;;;;;5058181;28;20126;-72
2023/04/04 12:01:43;;;;;;;3.03;2.17;;;13.30;81.60;;;;;;5058910;28;20025;-72
2023/04/04 12:04:09;;;;;;;5.03;2.53;;;13.60;83.90;;;;;;5058557;28;20029;-72
2023/04/04 12:06:35;;;;;;;6.13;2.42;;;13.80;84.00;;;;;;5057732;28;20021;-73
2023/04/04 12:09:04;;;;;;;3.15;2.00;;;14.10;79.90;;;;;;5058456;28;20048;-72
2023/04/04 12:11:33;;;;;;;2.17;1.92;;;14.20;79.70;;;;;;5058458;28;20025;-72
2023/04/04 12:13:59;;;;;;;5.43;2.40;;;14.10;79.40;;;;;;5057704;28;20025;-72
2023/04/04 12:16:27;;;;;;;3.00;2.00;;;13.30;74.30;;;;;;5057433;28;20078;-72
2023/04/04 12:18:52;;;;;;;5.18;2.08;;;13.50;82.90;;;;;;5057509;28;20032;-73
2023/04/04 12:21:18;;;;;;;3.78;2.10;;;14.10;78.90;;;;;;5057328;28;20021;-73
2023/04/04 12:23:45;;;;;;;2.97;2.10;;;14.40;81.50;;;;;;5058012;28;20032;-72
2023/04/04 12:26:11;;;;;;;2.45;1.90;;;14.50;80.90;;;;;;5058050;28;20040;-73
2023/04/04 12:28:38;;;;;;;5.28;2.28;;;14.90;79.80;;;;;;5057599;28;20025;-72
2023/04/04 12:31:07;;;;;;;4.63;2.17;;;15.00;80.50;;;;;;5057244;28;20021;-73
2023/04/04 12:33:34;;;;;;;5.68;2.30;;;15.10;77.50;;;;;;5057462;28;20025;-72
2023/04/04 12:36:02;;;;;;;2.55;2.13;;;15.20;74.50;;;;;;5057149;28;20028;-72
2023/04/04 12:38:29;;;;;;;4.25;2.10;;;14.90;71.50;;;;;;5057069;28;20033;-72
2023/04/04 12:40:55;;;;;;;3.92;2.10;;;15.10;75.30;;;;;;5057041;28;20025;-73
2023/04/04 12:43:21;;;;;;;5.18;2.20;;;15.10;75.20;;;;;;5057160;28;20059;-72
2023/04/04 12:45:49;;;;;;;3.53;2.10;;;15.10;73.10;;;;;;5056761;28;20035;-73
2023/04/04 12:48:16;;;;;;;7.05;1.98;;;15.20;74.00;;;;;;5057178;28;20017;-74
2023/04/04 12:51:14;;;;;;;4.45;2.50;;;14.50;68.70;;;;;;5057223;28;20046;-73
2023/04/04 12:53:55;;;;;;;2.63;2.00;;;14.60;72.70;;;;;;5000209;28;20037;-73
2023/04/04 12:56:26;;;;;;;3.25;2.10;;;14.70;74.80;;;;;;5000551;28;20022;-73